sensor_id;sensor_type;location;lat;lon;timestamp;P1;durP1;ratioP1;P2;durP2;ratioP2
79403;SDS011;68858;48.642;9.142;2024-03-08T00:00:26;27.07;;;21.47;;
79403;SDS011;68858;48.642;9.142;2024-03-08T00:02:52;28.07;;;22.03;;
79403;SDS011;68858;48.642;9.142;2024-03-08T00:05:19;29.97;;;22.70;;
79403;SDS011;68858;48.642;9.142;2024-03-08T00:07:45;28.40;;;22.07;;
79403;SDS011;68858;48.642;9.142;2024-03-08T00:10:11;28.97;;;22.00;;
79403;SDS011;68858;48.642;9.142;2024-03-08T00:12:41;28.03;;;21.73;;
79403;SDS011;68858;48.642;9.142;2024-03-08T00:15:09;31.03;;;23.27;;
79403;SDS011;68858;48.642;9.142;2024-03-08T00:17:36;30.30;;;23.30;;
79403;SDS011;68858;48.642;9.142;2024-03-08T00:20:02;30.83;;;22.87;;
79403;SDS011;68858;48.642;9.142;2024-03-08T00:22:33;30.43;;;22.53;;
79403;SDS011;68858;48.642;9.142;2024-03-08T00:24:59;30.13;;;22.93;;
79403;SDS011;68858;48.642;9.142;2024-03-08T00:27:24;29.60;;;23.10;;
79403;SDS011;68858;48.642;9.142;2024-03-08T00:29:50;30.83;;;23.63;;
79403;SDS011;68858;48.642;9.142;2024-03-08T00:32:15;31.40;;;24.20;;
79403;SDS011;68858;48.642;9.142;2024-03-08T00:34:42;29.87;;;22.00;;
79403;SDS011;68858;48.642;9.142;2024-03-08T00:37:08;26.87;;;22.10;;
79403;SDS011;68858;48.642;9.142;2024-03-08T00:39:33;28.03;;;22.03;;
79403;SDS011;68858;48.642;9.142;2024-03-08T00:41:59;29.10;;;21.20;;
79403;SDS011;68858;48.642;9.142;2024-03-08T00:44:24;27.17;;;20.17;;
79403;SDS011;68858;48.642;9.142;2024-03-08T00:46:50;26.67;;;20.17;;
79403;SDS011;68858;48.642;9.142;2024-03-08T00:49:15;29.33;;;20.73;;
79403;SDS011;68858;48.642;9.142;2024-03-08T00:51:41;31.13;;;21.67;;
79403;SDS011;68858;48.642;9.142;2024-03-08T00:54:08;29.60;;;21.73;;
79403;SDS011;68858;48.642;9.142;2024-03-08T00:56:34;28.37;;;21.47;;
79403;SDS011;68858;48.642;9.142;2024-03-08T00:59:00;30.77;;;22.00;;
79403;SDS011;68858;48.642;9.142;2024-03-08T01:01:28;29.57;;;21.27;;
79403;SDS011;68858;48.642;9.142;2024-03-08T01:03:53;29.20;;;20.70;;
79403;SDS011;68858;48.642;9.142;2024-03-08T01:06:24;26.77;;;20.27;;
79403;SDS011;68858;48.642;9.142;2024-03-08T01:08:49;27.40;;;20.97;;
79403;SDS011;68858;48.642;9.142;2024-03-08T01:11:17;30.00;;;21.33;;
79403;SDS011;68858;48.642;9.142;2024-03-08T01:13:43;27.17;;;20.70;;
79403;SDS011;68858;48.642;9.142;2024-03-08T01:16:08;28.27;;;21.47;;
79403;SDS011;68858;48.642;9.142;2024-03-08T01:18:33;31.80;;;22.33;;
79403;SDS011;68858;48.642;9.142;2024-03-08T01:20:59;32.33;;;23.00;;
79403;SDS011;68858;48.642;9.142;2024-03-08T01:23:24;31.90;;;22.43;;
79403;SDS011;68858;48.642;9.142;2024-03-08T01:25:50;32.63;;;23.43;;
79403;SDS011;68858;48.642;9.142;2024-03-08T01:28:22;34.30;;;23.37;;
79403;SDS011;68858;48.642;9.142;2024-03-08T01:30:52;36.30;;;24.17;;
79403;SDS011;68858;48.642;9.142;2024-03-08T01:33:24;36.07;;;25.27;;
79403;SDS011;68858;48.642;9.142;2024-03-08T01:35:53;39.73;;;26.00;;
79403;SDS011;68858;48.642;9.142;2024-03-08T01:38:19;39.93;;;26.20;;
79403;SDS011;68858;48.642;9.142;2024-03-08T01:40:48;37.57;;;25.90;;
79403;SDS011;68858;48.642;9.142;2024-03-08T01:43:22;38.20;;;26.40;;
79403;SDS011;68858;48.642;9.142;2024-03-08T01:45:58;37.47;;;26.73;;
79403;SDS011;68858;48.642;9.142;2024-03-08T01:48:24;37.03;;;26.43;;
79403;SDS011;68858;48.642;9.142;2024-03-08T01:50:50;38.87;;;26.17;;
79403;SDS011;68858;48.642;9.142;2024-03-08T01:53:17;39.63;;;26.30;;
79403;SDS011;68858;48.642;9.142;2024-03-08T01:55:43;40.03;;;27.23;;
79403;SDS011;68858;48.642;9.142;2024-03-08T01:58:10;40.60;;;26.47;;
79403;SDS011;68858;48.642;9.142;2024-03-08T02:00:36;39.33;;;25.80;;
79403;SDS011;68858;48.642;9.142;2024-03-08T02:03:05;39.70;;;26.97;;
79403;SDS011;68858;48.642;9.142;2024-03-08T02:05:31;38.57;;;26.10;;
79403;SDS011;68858;48.642;9.142;2024-03-08T02:07:57;41.97;;;27.20;;
79403;SDS011;68858;48.642;9.142;2024-03-08T02:10:22;37.07;;;25.87;;
79403;SDS011;68858;48.642;9.142;2024-03-08T02:12:48;45.37;;;27.93;;
79403;SDS011;68858;48.642;9.142;2024-03-08T02:15:13;38.10;;;26.07;;
79403;SDS011;68858;48.642;9.142;2024-03-08T02:17:40;37.77;;;25.17;;
79403;SDS011;68858;48.642;9.142;2024-03-08T02:20:07;41.00;;;26.00;;
79403;SDS011;68858;48.642;9.142;2024-03-08T02:22:34;37.03;;;24.90;;
79403;SDS011;68858;48.642;9.142;2024-03-08T02:25:00;38.57;;;26.13;;
79403;SDS011;68858;48.642;9.142;2024-03-08T02:27:28;34.73;;;23.67;;
79403;SDS011;68858;48.642;9.142;2024-03-08T02:30:11;31.67;;;22.40;;
79403;SDS011;68858;48.642;9.142;2024-03-08T02:32:38;33.37;;;23.80;;
79403;SDS011;68858;48.642;9.142;2024-03-08T02:35:04;36.00;;;24.07;;
79403;SDS011;68858;48.642;9.142;2024-03-08T02:37:31;38.80;;;25.77;;
79403;SDS011;68858;48.642;9.142;2024-03-08T02:39:57;34.20;;;24.67;;
79403;SDS011;68858;48.642;9.142;2024-03-08T02:42:22;33.90;;;24.17;;
79403;SDS011;68858;48.642;9.142;2024-03-08T02:44:48;34.73;;;22.50;;
79403;SDS011;68858;48.642;9.142;2024-03-08T02:47:13;32.83;;;23.00;;
79403;SDS011;68858;48.642;9.142;2024-03-08T02:49:39;29.73;;;21.43;;
79403;SDS011;68858;48.642;9.142;2024-03-08T02:52:04;30.77;;;21.63;;
79403;SDS011;68858;48.642;9.142;2024-03-08T02:54:30;30.30;;;22.20;;
79403;SDS011;68858;48.642;9.142;2024-03-08T02:56:55;33.10;;;23.93;;
79403;SDS011;68858;48.642;9.142;2024-03-08T02:59:21;32.67;;;23.80;;
79403;SDS011;68858;48.642;9.142;2024-03-08T03:01:47;31.07;;;22.40;;
79403;SDS011;68858;48.642;9.142;2024-03-08T03:04:12;36.13;;;22.27;;
79403;SDS011;68858;48.642;9.142;2024-03-08T03:06:38;32.13;;;21.87;;
79403;SDS011;68858;48.642;9.142;2024-03-08T03:09:03;29.83;;;21.83;;
79403;SDS011;68858;48.642;9.142;2024-03-08T03:11:31;28.07;;;20.90;;
79403;SDS011;68858;48.642;9.142;2024-03-08T03:13:56;28.20;;;21.13;;
79403;SDS011;68858;48.642;9.142;2024-03-08T03:16:22;30.30;;;22.10;;
79403;SDS011;68858;48.642;9.142;2024-03-08T03:18:48;31.90;;;23.40;;
79403;SDS011;68858;48.642;9.142;2024-03-08T03:21:13;31.53;;;22.60;;
79403;SDS011;68858;48.642;9.142;2024-03-08T03:23:39;30.50;;;20.03;;
79403;SDS011;68858;48.642;9.142;2024-03-08T03:26:05;28.93;;;20.07;;
79403;SDS011;68858;48.642;9.142;2024-03-08T03:28:32;28.53;;;19.97;;
79403;SDS011;68858;48.642;9.142;2024-03-08T03:30:58;28.23;;;20.17;;
79403;SDS011;68858;48.642;9.142;2024-03-08T03:33:24;32.47;;;23.47;;
79403;SDS011;68858;48.642;9.142;2024-03-08T03:35:50;43.37;;;26.97;;
79403;SDS011;68858;48.642;9.142;2024-03-08T03:38:16;38.77;;;26.13;;
79403;SDS011;68858;48.642;9.142;2024-03-08T03:40:42;38.00;;;25.40;;
79403;SDS011;68858;48.642;9.142;2024-03-08T03:43:10;49.07;;;29.60;;
79403;SDS011;68858;48.642;9.142;2024-03-08T03:45:36;45.90;;;28.90;;
79403;SDS011;68858;48.642;9.142;2024-03-08T03:48:04;43.97;;;26.93;;
79403;SDS011;68858;48.642;9.142;2024-03-08T03:50:37;42.43;;;27.67;;
79403;SDS011;68858;48.642;9.142;2024-03-08T03:53:03;42.30;;;26.43;;
79403;SDS011;68858;48.642;9.142;2024-03-08T03:55:29;42.73;;;26.60;;
79403;SDS011;68858;48.642;9.142;2024-03-08T03:57:55;41.57;;;26.97;;
79403;SDS011;68858;48.642;9.142;2024-03-08T04:00:20;44.73;;;27.53;;
79403;SDS011;68858;48.642;9.142;2024-03-08T04:02:46;43.03;;;27.27;;
79403;SDS011;68858;48.642;9.142;2024-03-08T04:05:14;44.33;;;26.90;;
79403;SDS011;68858;48.642;9.142;2024-03-08T04:07:40;44.43;;;27.40;;
79403;SDS011;68858;48.642;9.142;2024-03-08T04:10:06;44.83;;;27.60;;
79403;SDS011;68858;48.642;9.142;2024-03-08T04:12:33;45.20;;;26.90;;
79403;SDS011;68858;48.642;9.142;2024-03-08T04:14:58;42.17;;;27.27;;
79403;SDS011;68858;48.642;9.142;2024-03-08T04:17:25;43.03;;;25.90;;
79403;SDS011;68858;48.642;9.142;2024-03-08T04:19:51;38.83;;;26.73;;
79403;SDS011;68858;48.642;9.142;2024-03-08T04:22:17;36.47;;;24.50;;
79403;SDS011;68858;48.642;9.142;2024-03-08T04:24:43;40.17;;;25.30;;
79403;SDS011;68858;48.642;9.142;2024-03-08T04:27:09;40.20;;;25.73;;
79403;SDS011;68858;48.642;9.142;2024-03-08T04:29:34;44.30;;;27.20;;
79403;SDS011;68858;48.642;9.142;2024-03-08T04:32:02;41.10;;;26.07;;
79403;SDS011;68858;48.642;9.142;2024-03-08T04:34:29;39.33;;;25.63;;
79403;SDS011;68858;48.642;9.142;2024-03-08T04:36:56;43.13;;;26.80;;
79403;SDS011;68858;48.642;9.142;2024-03-08T04:39:22;41.43;;;25.97;;
79403;SDS011;68858;48.642;9.142;2024-03-08T04:41:48;44.00;;;26.97;;
79403;SDS011;68858;48.642;9.142;2024-03-08T04:44:14;44.30;;;26.93;;
79403;SDS011;68858;48.642;9.142;2024-03-08T04:46:40;44.67;;;28.47;;
79403;SDS011;68858;48.642;9.142;2024-03-08T04:49:06;42.17;;;27.63;;
79403;SDS011;68858;48.642;9.142;2024-03-08T04:51:32;46.47;;;28.07;;
79403;SDS011;68858;48.642;9.142;2024-03-08T04:53:58;41.83;;;26.87;;
79403;SDS011;68858;48.642;9.142;2024-03-08T04:56:24;41.90;;;27.90;;
79403;SDS011;68858;48.642;9.142;2024-03-08T04:58:50;39.00;;;25.63;;
79403;SDS011;68858;48.642;9.142;2024-03-08T05:01:16;39.20;;;26.87;;
79403;SDS011;68858;48.642;9.142;2024-03-08T05:03:42;53.80;;;29.67;;
79403;SDS011;68858;48.642;9.142;2024-03-08T05:06:07;46.20;;;27.53;;
79403;SDS011;68858;48.642;9.142;2024-03-08T05:08:33;47.73;;;28.37;;
79403;SDS011;68858;48.642;9.142;2024-03-08T05:10:59;56.47;;;29.23;;
79403;SDS011;68858;48.642;9.142;2024-03-08T05:13:28;51.07;;;29.03;;
79403;SDS011;68858;48.642;9.142;2024-03-08T05:15:54;46.23;;;27.80;;
79403;SDS011;68858;48.642;9.142;2024-03-08T05:18:23;47.07;;;28.60;;
79403;SDS011;68858;48.642;9.142;2024-03-08T05:20:49;51.80;;;28.67;;
79403;SDS011;68858;48.642;9.142;2024-03-08T05:23:15;44.43;;;26.73;;
79403;SDS011;68858;48.642;9.142;2024-03-08T05:25:40;49.73;;;28.27;;
79403;SDS011;68858;48.642;9.142;2024-03-08T05:28:06;45.77;;;26.60;;
79403;SDS011;68858;48.642;9.142;2024-03-08T05:30:32;46.23;;;27.47;;
79403;SDS011;68858;48.642;9.142;2024-03-08T05:32:57;51.87;;;29.43;;
79403;SDS011;68858;48.642;9.142;2024-03-08T05:35:23;49.27;;;28.83;;
79403;SDS011;68858;48.642;9.142;2024-03-08T05:37:49;47.93;;;28.70;;
79403;SDS011;68858;48.642;9.142;2024-03-08T05:40:15;47.30;;;28.03;;
79403;SDS011;68858;48.642;9.142;2024-03-08T05:42:41;43.93;;;28.07;;
79403;SDS011;68858;48.642;9.142;2024-03-08T05:45:06;44.57;;;27.70;;
79403;SDS011;68858;48.642;9.142;2024-03-08T05:47:32;44.23;;;28.17;;
79403;SDS011;68858;48.642;9.142;2024-03-08T05:50:01;39.70;;;25.80;;
79403;SDS011;68858;48.642;9.142;2024-03-08T05:52:26;41.07;;;25.93;;
79403;SDS011;68858;48.642;9.142;2024-03-08T05:54:52;43.27;;;25.90;;
79403;SDS011;68858;48.642;9.142;2024-03-08T05:57:18;42.83;;;27.27;;
79403;SDS011;68858;48.642;9.142;2024-03-08T05:59:44;37.83;;;25.83;;
79403;SDS011;68858;48.642;9.142;2024-03-08T06:02:09;43.53;;;27.30;;
79403;SDS011;68858;48.642;9.142;2024-03-08T06:04:35;39.87;;;25.87;;
79403;SDS011;68858;48.642;9.142;2024-03-08T06:07:00;42.97;;;27.03;;
79403;SDS011;68858;48.642;9.142;2024-03-08T06:09:28;40.30;;;25.63;;
79403;SDS011;68858;48.642;9.142;2024-03-08T06:11:54;40.27;;;25.40;;
79403;SDS011;68858;48.642;9.142;2024-03-08T06:14:19;37.07;;;25.33;;
79403;SDS011;68858;48.642;9.142;2024-03-08T06:16:45;43.37;;;25.87;;
79403;SDS011;68858;48.642;9.142;2024-03-08T06:19:11;37.93;;;26.87;;
79403;SDS011;68858;48.642;9.142;2024-03-08T06:21:38;35.97;;;24.13;;
79403;SDS011;68858;48.642;9.142;2024-03-08T06:24:04;44.20;;;27.73;;
79403;SDS011;68858;48.642;9.142;2024-03-08T06:26:30;36.67;;;25.20;;
79403;SDS011;68858;48.642;9.142;2024-03-08T06:28:55;39.37;;;25.57;;
79403;SDS011;68858;48.642;9.142;2024-03-08T06:31:21;37.93;;;25.57;;
79403;SDS011;68858;48.642;9.142;2024-03-08T06:33:47;35.93;;;24.30;;
79403;SDS011;68858;48.642;9.142;2024-03-08T06:36:17;39.23;;;27.90;;
79403;SDS011;68858;48.642;9.142;2024-03-08T06:38:47;41.77;;;30.07;;
79403;SDS011;68858;48.642;9.142;2024-03-08T06:41:15;39.23;;;27.53;;
79403;SDS011;68858;48.642;9.142;2024-03-08T06:43:41;39.33;;;27.50;;
79403;SDS011;68858;48.642;9.142;2024-03-08T06:46:10;38.43;;;26.67;;
79403;SDS011;68858;48.642;9.142;2024-03-08T06:48:39;41.93;;;27.80;;
79403;SDS011;68858;48.642;9.142;2024-03-08T06:51:05;38.83;;;27.03;;
79403;SDS011;68858;48.642;9.142;2024-03-08T06:53:30;37.20;;;26.07;;
79403;SDS011;68858;48.642;9.142;2024-03-08T06:55:56;38.23;;;28.00;;
79403;SDS011;68858;48.642;9.142;2024-03-08T06:58:22;35.87;;;26.60;;
79403;SDS011;68858;48.642;9.142;2024-03-08T07:00:48;35.60;;;25.60;;
79403;SDS011;68858;48.642;9.142;2024-03-08T07:03:17;35.63;;;25.90;;
79403;SDS011;68858;48.642;9.142;2024-03-08T07:05:42;35.73;;;24.00;;
79403;SDS011;68858;48.642;9.142;2024-03-08T07:08:08;32.60;;;23.67;;
79403;SDS011;68858;48.642;9.142;2024-03-08T07:10:34;34.33;;;23.77;;
79403;SDS011;68858;48.642;9.142;2024-03-08T07:13:00;33.70;;;24.43;;
79403;SDS011;68858;48.642;9.142;2024-03-08T07:15:27;32.93;;;24.47;;
79403;SDS011;68858;48.642;9.142;2024-03-08T07:17:53;30.63;;;22.80;;
79403;SDS011;68858;48.642;9.142;2024-03-08T07:20:19;33.23;;;25.03;;
79403;SDS011;68858;48.642;9.142;2024-03-08T07:22:48;35.40;;;26.23;;
79403;SDS011;68858;48.642;9.142;2024-03-08T07:25:15;36.10;;;26.63;;
79403;SDS011;68858;48.642;9.142;2024-03-08T07:27:49;34.33;;;26.33;;
79403;SDS011;68858;48.642;9.142;2024-03-08T07:30:18;34.60;;;24.30;;
79403;SDS011;68858;48.642;9.142;2024-03-08T07:33:03;29.50;;;21.87;;
79403;SDS011;68858;48.642;9.142;2024-03-08T07:35:29;30.90;;;24.17;;
79403;SDS011;68858;48.642;9.142;2024-03-08T07:37:56;27.40;;;21.87;;
79403;SDS011;68858;48.642;9.142;2024-03-08T07:40:22;29.67;;;22.27;;
79403;SDS011;68858;48.642;9.142;2024-03-08T07:42:48;28.33;;;22.63;;
79403;SDS011;68858;48.642;9.142;2024-03-08T07:45:14;27.63;;;20.67;;
79403;SDS011;68858;48.642;9.142;2024-03-08T07:47:41;28.90;;;20.93;;
79403;SDS011;68858;48.642;9.142;2024-03-08T07:50:07;29.10;;;21.20;;
79403;SDS011;68858;48.642;9.142;2024-03-08T07:52:33;23.63;;;18.37;;
79403;SDS011;68858;48.642;9.142;2024-03-08T07:55:00;24.67;;;19.90;;
79403;SDS011;68858;48.642;9.142;2024-03-08T07:57:25;25.27;;;19.37;;
79403;SDS011;68858;48.642;9.142;2024-03-08T07:59:51;26.23;;;20.17;;
79403;SDS011;68858;48.642;9.142;2024-03-08T08:02:16;26.50;;;19.97;;
79403;SDS011;68858;48.642;9.142;2024-03-08T08:04:42;23.83;;;19.47;;
79403;SDS011;68858;48.642;9.142;2024-03-08T08:07:09;23.83;;;18.90;;
79403;SDS011;68858;48.642;9.142;2024-03-08T08:09:35;23.37;;;18.53;;
79403;SDS011;68858;48.642;9.142;2024-03-08T08:12:00;20.23;;;17.13;;
79403;SDS011;68858;48.642;9.142;2024-03-08T08:14:28;23.37;;;19.97;;
79403;SDS011;68858;48.642;9.142;2024-03-08T08:16:54;23.70;;;18.67;;
79403;SDS011;68858;48.642;9.142;2024-03-08T08:19:21;23.73;;;19.60;;
79403;SDS011;68858;48.642;9.142;2024-03-08T08:21:46;22.57;;;18.17;;
79403;SDS011;68858;48.642;9.142;2024-03-08T08:24:12;21.83;;;17.63;;
79403;SDS011;68858;48.642;9.142;2024-03-08T08:26:38;20.70;;;17.97;;
79403;SDS011;68858;48.642;9.142;2024-03-08T08:29:04;22.90;;;18.97;;
79403;SDS011;68858;48.642;9.142;2024-03-08T08:31:31;20.50;;;17.20;;
79403;SDS011;68858;48.642;9.142;2024-03-08T08:33:57;20.27;;;17.00;;
79403;SDS011;68858;48.642;9.142;2024-03-08T08:36:25;19.20;;;16.43;;
79403;SDS011;68858;48.642;9.142;2024-03-08T08:38:52;19.87;;;16.60;;
79403;SDS011;68858;48.642;9.142;2024-03-08T08:41:21;18.63;;;16.63;;
79403;SDS011;68858;48.642;9.142;2024-03-08T08:43:47;22.00;;;17.40;;
79403;SDS011;68858;48.642;9.142;2024-03-08T08:46:16;20.07;;;16.33;;
79403;SDS011;68858;48.642;9.142;2024-03-08T08:48:42;20.50;;;16.07;;
79403;SDS011;68858;48.642;9.142;2024-03-08T08:51:14;19.27;;;16.93;;
79403;SDS011;68858;48.642;9.142;2024-03-08T08:53:40;19.07;;;16.43;;
79403;SDS011;68858;48.642;9.142;2024-03-08T08:56:14;22.10;;;17.23;;
79403;SDS011;68858;48.642;9.142;2024-03-08T08:58:44;18.97;;;16.53;;
79403;SDS011;68858;48.642;9.142;2024-03-08T09:01:09;19.80;;;16.77;;
79403;SDS011;68858;48.642;9.142;2024-03-08T09:03:38;19.40;;;15.87;;
79403;SDS011;68858;48.642;9.142;2024-03-08T09:06:06;17.77;;;15.13;;
79403;SDS011;68858;48.642;9.142;2024-03-08T09:08:37;18.63;;;15.30;;
79403;SDS011;68858;48.642;9.142;2024-03-08T09:11:03;17.60;;;15.10;;
79403;SDS011;68858;48.642;9.142;2024-03-08T09:13:29;20.40;;;16.10;;
79403;SDS011;68858;48.642;9.142;2024-03-08T09:15:54;16.60;;;14.80;;
79403;SDS011;68858;48.642;9.142;2024-03-08T09:18:20;17.50;;;15.00;;
79403;SDS011;68858;48.642;9.142;2024-03-08T09:20:45;20.60;;;16.20;;
79403;SDS011;68858;48.642;9.142;2024-03-08T09:23:12;18.63;;;16.00;;
79403;SDS011;68858;48.642;9.142;2024-03-08T09:25:37;17.43;;;15.50;;
79403;SDS011;68858;48.642;9.142;2024-03-08T09:28:03;17.37;;;14.90;;
79403;SDS011;68858;48.642;9.142;2024-03-08T09:30:30;16.17;;;14.37;;
79403;SDS011;68858;48.642;9.142;2024-03-08T09:32:56;18.00;;;15.53;;
79403;SDS011;68858;48.642;9.142;2024-03-08T09:35:22;17.73;;;14.50;;
79403;SDS011;68858;48.642;9.142;2024-03-08T09:37:47;16.80;;;14.60;;
79403;SDS011;68858;48.642;9.142;2024-03-08T09:40:16;19.00;;;16.13;;
79403;SDS011;68858;48.642;9.142;2024-03-08T09:42:42;18.20;;;14.83;;
79403;SDS011;68858;48.642;9.142;2024-03-08T09:45:10;16.77;;;14.97;;
79403;SDS011;68858;48.642;9.142;2024-03-08T09:47:39;17.47;;;15.57;;
79403;SDS011;68858;48.642;9.142;2024-03-08T09:50:06;16.73;;;14.57;;
79403;SDS011;68858;48.642;9.142;2024-03-08T09:52:35;17.57;;;14.73;;
79403;SDS011;68858;48.642;9.142;2024-03-08T09:55:03;18.77;;;16.30;;
79403;SDS011;68858;48.642;9.142;2024-03-08T09:57:32;18.30;;;15.07;;
79403;SDS011;68858;48.642;9.142;2024-03-08T09:59:59;16.53;;;14.83;;
79403;SDS011;68858;48.642;9.142;2024-03-08T10:02:24;17.57;;;14.57;;
79403;SDS011;68858;48.642;9.142;2024-03-08T10:04:51;12.93;;;9.70;;
79403;SDS011;68858;48.642;9.142;2024-03-08T10:07:19;17.27;;;15.30;;
79403;SDS011;68858;48.642;9.142;2024-03-08T10:09:45;17.37;;;14.47;;
79403;SDS011;68858;48.642;9.142;2024-03-08T10:12:16;17.30;;;15.00;;
79403;SDS011;68858;48.642;9.142;2024-03-08T10:14:42;17.00;;;14.83;;
79403;SDS011;68858;48.642;9.142;2024-03-08T10:17:08;17.33;;;15.50;;
79403;SDS011;68858;48.642;9.142;2024-03-08T10:19:33;17.67;;;15.70;;
79403;SDS011;68858;48.642;9.142;2024-03-08T10:21:59;18.80;;;15.63;;
79403;SDS011;68858;48.642;9.142;2024-03-08T10:24:25;17.00;;;15.20;;
79403;SDS011;68858;48.642;9.142;2024-03-08T10:27:00;16.93;;;14.47;;
79403;SDS011;68858;48.642;9.142;2024-03-08T10:29:29;16.63;;;14.83;;
79403;SDS011;68858;48.642;9.142;2024-03-08T10:31:56;16.43;;;14.53;;
79403;SDS011;68858;48.642;9.142;2024-03-08T10:34:22;16.07;;;14.13;;
79403;SDS011;68858;48.642;9.142;2024-03-08T10:36:49;15.60;;;13.97;;
79403;SDS011;68858;48.642;9.142;2024-03-08T10:41:50;15.10;;;13.43;;
79403;SDS011;68858;48.642;9.142;2024-03-08T10:47:10;16.23;;;14.53;;
79403;SDS011;68858;48.642;9.142;2024-03-08T10:50:08;16.20;;;13.40;;
79403;SDS011;68858;48.642;9.142;2024-03-08T10:52:38;15.93;;;13.17;;
79403;SDS011;68858;48.642;9.142;2024-03-08T10:55:04;17.07;;;14.23;;
79403;SDS011;68858;48.642;9.142;2024-03-08T10:57:38;14.83;;;12.63;;
79403;SDS011;68858;48.642;9.142;2024-03-08T11:00:04;15.13;;;13.50;;
79403;SDS011;68858;48.642;9.142;2024-03-08T11:02:35;15.47;;;13.87;;
79403;SDS011;68858;48.642;9.142;2024-03-08T11:05:00;14.83;;;13.33;;
79403;SDS011;68858;48.642;9.142;2024-03-08T11:07:33;15.40;;;13.47;;
79403;SDS011;68858;48.642;9.142;2024-03-08T11:10:02;14.70;;;13.30;;
79403;SDS011;68858;48.642;9.142;2024-03-08T11:12:36;13.67;;;12.33;;
79403;SDS011;68858;48.642;9.142;2024-03-08T11:15:02;13.70;;;12.30;;
79403;SDS011;68858;48.642;9.142;2024-03-08T11:20:14;15.27;;;13.67;;
79403;SDS011;68858;48.642;9.142;2024-03-08T11:22:57;13.30;;;11.93;;
79403;SDS011;68858;48.642;9.142;2024-03-08T11:25:39;13.53;;;12.23;;
79403;SDS011;68858;48.642;9.142;2024-03-08T11:28:14;14.07;;;12.77;;
79403;SDS011;68858;48.642;9.142;2024-03-08T11:30:42;14.23;;;12.83;;
79403;SDS011;68858;48.642;9.142;2024-03-08T11:33:12;14.83;;;13.33;;
79403;SDS011;68858;48.642;9.142;2024-03-08T11:35:38;13.60;;;12.30;;
79403;SDS011;68858;48.642;9.142;2024-03-08T11:38:04;14.40;;;13.03;;
79403;SDS011;68858;48.642;9.142;2024-03-08T11:40:29;14.17;;;12.73;;
79403;SDS011;68858;48.642;9.142;2024-03-08T11:42:55;14.20;;;12.73;;
79403;SDS011;68858;48.642;9.142;2024-03-08T11:45:20;14.17;;;12.87;;
79403;SDS011;68858;48.642;9.142;2024-03-08T11:47:46;13.73;;;12.30;;
79403;SDS011;68858;48.642;9.142;2024-03-08T11:50:12;13.97;;;12.67;;
79403;SDS011;68858;48.642;9.142;2024-03-08T11:52:40;13.37;;;11.83;;
79403;SDS011;68858;48.642;9.142;2024-03-08T11:55:06;13.40;;;11.97;;
79403;SDS011;68858;48.642;9.142;2024-03-08T11:57:32;13.77;;;12.47;;
79403;SDS011;68858;48.642;9.142;2024-03-08T11:59:58;12.97;;;11.77;;
79403;SDS011;68858;48.642;9.142;2024-03-08T12:02:33;13.13;;;11.93;;
79403;SDS011;68858;48.642;9.142;2024-03-08T12:05:03;13.10;;;11.90;;
79403;SDS011;68858;48.642;9.142;2024-03-08T12:07:29;14.13;;;12.83;;
79403;SDS011;68858;48.642;9.142;2024-03-08T12:12:48;13.33;;;12.10;;
79403;SDS011;68858;48.642;9.142;2024-03-08T12:15:16;12.83;;;11.67;;
79403;SDS011;68858;48.642;9.142;2024-03-08T12:17:43;12.90;;;11.70;;
79403;SDS011;68858;48.642;9.142;2024-03-08T12:20:15;14.10;;;12.70;;
79403;SDS011;68858;48.642;9.142;2024-03-08T12:22:44;13.47;;;12.17;;
79403;SDS011;68858;48.642;9.142;2024-03-08T12:25:13;12.77;;;11.50;;
79403;SDS011;68858;48.642;9.142;2024-03-08T12:27:39;13.53;;;12.27;;
79403;SDS011;68858;48.642;9.142;2024-03-08T12:30:21;13.60;;;12.40;;
79403;SDS011;68858;48.642;9.142;2024-03-08T12:32:49;13.73;;;12.43;;
79403;SDS011;68858;48.642;9.142;2024-03-08T12:35:24;13.23;;;12.03;;
79403;SDS011;68858;48.642;9.142;2024-03-08T12:37:57;13.20;;;11.93;;
79403;SDS011;68858;48.642;9.142;2024-03-08T12:40:30;14.50;;;13.10;;
79403;SDS011;68858;48.642;9.142;2024-03-08T12:42:57;13.67;;;12.37;;
79403;SDS011;68858;48.642;9.142;2024-03-08T12:45:24;13.10;;;11.53;;
79403;SDS011;68858;48.642;9.142;2024-03-08T12:47:51;13.57;;;12.27;;
79403;SDS011;68858;48.642;9.142;2024-03-08T12:50:17;14.17;;;12.77;;
79403;SDS011;68858;48.642;9.142;2024-03-08T12:52:44;13.50;;;12.30;;
79403;SDS011;68858;48.642;9.142;2024-03-08T12:55:10;13.17;;;11.90;;
79403;SDS011;68858;48.642;9.142;2024-03-08T12:57:35;12.37;;;10.40;;
79403;SDS011;68858;48.642;9.142;2024-03-08T13:00:03;13.93;;;12.47;;
79403;SDS011;68858;48.642;9.142;2024-03-08T13:02:29;13.77;;;12.30;;
79403;SDS011;68858;48.642;9.142;2024-03-08T13:04:56;14.20;;;12.40;;
79403;SDS011;68858;48.642;9.142;2024-03-08T13:07:25;14.70;;;13.30;;
79403;SDS011;68858;48.642;9.142;2024-03-08T13:09:54;14.90;;;13.40;;
79403;SDS011;68858;48.642;9.142;2024-03-08T13:12:22;13.87;;;12.57;;
79403;SDS011;68858;48.642;9.142;2024-03-08T13:14:49;13.27;;;11.73;;
79403;SDS011;68858;48.642;9.142;2024-03-08T13:17:14;14.13;;;12.63;;
79403;SDS011;68858;48.642;9.142;2024-03-08T13:19:40;14.17;;;12.67;;
79403;SDS011;68858;48.642;9.142;2024-03-08T13:22:07;13.17;;;11.97;;
79403;SDS011;68858;48.642;9.142;2024-03-08T13:24:37;13.87;;;12.47;;
79403;SDS011;68858;48.642;9.142;2024-03-08T13:27:02;13.97;;;12.60;;
79403;SDS011;68858;48.642;9.142;2024-03-08T13:29:41;14.77;;;13.17;;
79403;SDS011;68858;48.642;9.142;2024-03-08T13:32:08;14.50;;;13.07;;
79403;SDS011;68858;48.642;9.142;2024-03-08T13:34:45;14.40;;;13.00;;
79403;SDS011;68858;48.642;9.142;2024-03-08T13:37:12;14.13;;;12.73;;
79403;SDS011;68858;48.642;9.142;2024-03-08T13:39:41;15.00;;;13.50;;
79403;SDS011;68858;48.642;9.142;2024-03-08T13:42:12;14.47;;;13.07;;
79403;SDS011;68858;48.642;9.142;2024-03-08T13:44:47;14.30;;;12.80;;
79403;SDS011;68858;48.642;9.142;2024-03-08T13:47:13;15.30;;;13.80;;
79403;SDS011;68858;48.642;9.142;2024-03-08T13:49:44;14.13;;;12.73;;
79403;SDS011;68858;48.642;9.142;2024-03-08T13:52:10;14.33;;;12.83;;
79403;SDS011;68858;48.642;9.142;2024-03-08T13:54:38;14.90;;;13.30;;
79403;SDS011;68858;48.642;9.142;2024-03-08T13:57:03;14.23;;;11.73;;
79403;SDS011;68858;48.642;9.142;2024-03-08T13:59:32;14.60;;;13.20;;
79403;SDS011;68858;48.642;9.142;2024-03-08T14:02:00;14.70;;;13.13;;
79403;SDS011;68858;48.642;9.142;2024-03-08T14:04:27;14.57;;;13.17;;
79403;SDS011;68858;48.642;9.142;2024-03-08T14:06:55;14.77;;;13.27;;
79403;SDS011;68858;48.642;9.142;2024-03-08T14:09:28;14.57;;;13.13;;
79403;SDS011;68858;48.642;9.142;2024-03-08T14:11:54;14.33;;;12.90;;
79403;SDS011;68858;48.642;9.142;2024-03-08T14:14:23;14.27;;;12.87;;
79403;SDS011;68858;48.642;9.142;2024-03-08T14:16:49;14.20;;;12.77;;
79403;SDS011;68858;48.642;9.142;2024-03-08T14:19:18;14.60;;;13.20;;
79403;SDS011;68858;48.642;9.142;2024-03-08T14:21:44;14.37;;;12.97;;
79403;SDS011;68858;48.642;9.142;2024-03-08T14:24:10;14.20;;;12.80;;
79403;SDS011;68858;48.642;9.142;2024-03-08T14:26:36;14.20;;;12.70;;
79403;SDS011;68858;48.642;9.142;2024-03-08T14:29:04;15.20;;;13.70;;
79403;SDS011;68858;48.642;9.142;2024-03-08T14:31:30;14.10;;;12.60;;